This is the latest recevied weather packets stored in our database for station/object VA7SCH-13. If no packets are shown the sender has not sent any weather packets the latest 10 day(s).
| Time | Temp. | Humidity | Pressure | Rain* | Wind** | Luminosity | Snow |
|---|---|---|---|---|---|---|---|
| 1777629319 | 13.33° C | 49% | 1020.5 hPa | 0 mm | - | - | - |
| 1777628719 | 13.33° C | 49% | 1020.5 hPa | 0 mm | - | - | - |
| 1777628118 | 12.78° C | 51% | 1020.5 hPa | 0 mm | - | - | - |
| 1777624537 | 12.22° C | 53% | 1020.3 hPa | 0 mm | - | - | - |
| 1777623337 | 12.78° C | 52% | 1020.3 hPa | 0 mm | - | - | - |
| 1777616136 | 15° C | 45% | 1019.9 hPa | 0 mm | - | - | - |
| 1777614936 | 15° C | 46% | 1019.8 hPa | 0 mm | - | - | - |
| 1777611935 | 15.56° C | 47% | 1019.7 hPa | 0 mm | - | - | - |
| 1777607135 | 16.67° C | 46% | 1018.2 hPa | 0 mm | - | - | - |
| 1777603555 | 18.33° C | 41% | 1017.9 hPa | 0 mm | - | - | - |
| 1777601135 | 20.56° C | 36% | 1017.9 hPa | 0 mm | - | - | - |
| 1777589735 | 24.44° C | 30% | 1020.7 hPa | 0 mm | - | - | - |
| 1777587934 | 24.44° C | 31% | 1020.9 hPa | 0 mm | - | - | - |
| 1777583754 | 22.78° C | 33% | 1022.1 hPa | 0 mm | - | - | - |
| 1777574733 | 19.44° C | 41% | 1025.3 hPa | 0 mm | - | - | - |
| 1777571733 | 17.78° C | 43% | 1025.2 hPa | 0 mm | - | - | - |
| 1777566933 | 15.56° C | 49% | 1026.3 hPa | 0 mm | - | - | - |
| 1777564533 | 15° C | 51% | 1027.3 hPa | 0 mm | - | - | - |
| 1777562733 | 13.89° C | 54% | 1027.3 hPa | 0 mm | - | - | - |
| 1777557334 | 7.78° C | 74% | 1027.2 hPa | 0 mm | - | - | - |
| 1777556752 | 7.78° C | 75% | 1027.1 hPa | 0 mm | - | - | - |
| 1777556134 | 7.22° C | 74% | 1027.1 hPa | 0 mm | - | - | - |
| 1777555533 | 6.67° C | 76% | 1027.1 hPa | 0 mm | - | - | - |
| 1777554934 | 6.67° C | 77% | 1027.1 hPa | 0 mm | - | - | - |
| 1777549552 | 7.78° C | 72% | 1026.1 hPa | 0 mm | - | - | - |
* Rain latest hour (hover to see other rain measurements)
** Current wind speed in m/s (hover to see current wind gust speed)